createdAt,value
2018-12-15T00:00:33.834Z,30.17
2018-12-15T00:01:37.527Z,26.65
2018-12-15T00:02:41.166Z,30.48
2018-12-15T00:03:44.905Z,28.70
2018-12-15T00:04:48.670Z,26.02
2018-12-15T00:05:52.395Z,27.85
2018-12-15T00:06:56.012Z,26.93
2018-12-15T00:07:59.707Z,26.48
2018-12-15T00:09:05.053Z,28.98
2018-12-15T00:10:08.762Z,27.27
2018-12-15T00:11:12.449Z,29.25
2018-12-15T00:12:16.130Z,26.73
2018-12-15T00:13:19.842Z,26.05
2018-12-15T00:14:23.505Z,26.05
2018-12-15T00:15:27.272Z,25.55
2018-12-15T00:16:31.073Z,29.45
2018-12-15T00:17:34.737Z,27.50
2018-12-15T00:18:38.496Z,28.57
2018-12-15T00:19:42.105Z,26.17
2018-12-15T00:20:45.758Z,25.20
2018-12-15T00:21:49.381Z,23.67
2018-12-15T00:22:53.077Z,28.15
2018-12-15T00:23:56.710Z,29.50
2018-12-15T00:25:00.400Z,28.27
2018-12-15T00:26:04.113Z,25.92
2018-12-15T00:27:07.788Z,27.77
2018-12-15T00:28:11.357Z,26.82
2018-12-15T00:29:15.101Z,27.75
2018-12-15T00:30:18.817Z,24.87
2018-12-15T00:31:22.517Z,28.57
2018-12-15T00:32:26.161Z,24.05
2018-12-15T00:33:29.769Z,29.12
2018-12-15T00:34:33.381Z,25.65
2018-12-15T00:35:37.004Z,26.82
2018-12-15T00:36:40.688Z,25.52
2018-12-15T00:37:44.576Z,28.50
2018-12-15T00:38:48.193Z,27.73
2018-12-15T00:39:51.905Z,25.20
2018-12-15T00:40:55.509Z,26.42
2018-12-15T00:41:59.176Z,26.80
2018-12-15T00:43:02.834Z,24.70
2018-12-15T00:44:06.448Z,24.32
2018-12-15T00:45:10.217Z,24.32
2018-12-15T00:46:13.893Z,26.42
2018-12-15T00:47:17.583Z,25.48
2018-12-15T00:48:21.193Z,30.20
2018-12-15T00:49:24.911Z,34.30
2018-12-15T00:50:28.590Z,28.73
2018-12-15T00:51:32.310Z,29.40
2018-12-15T00:52:35.945Z,27.05
2018-12-15T00:53:39.560Z,26.17
2018-12-15T00:54:43.260Z,25.30
2018-12-15T00:55:46.880Z,25.27
2018-12-15T00:56:50.561Z,25.72
2018-12-15T00:57:54.257Z,25.12
2018-12-15T00:58:57.986Z,25.30
2018-12-15T01:00:01.678Z,28.73
2018-12-15T01:01:05.413Z,28.57
2018-12-15T01:02:09.177Z,27.00
2018-12-15T01:03:12.881Z,25.97
2018-12-15T01:04:16.510Z,24.65
2018-12-15T01:05:20.218Z,27.37
2018-12-15T01:06:24.187Z,26.90
2018-12-15T01:07:27.833Z,26.37
2018-12-15T01:08:31.691Z,28.17
2018-12-15T01:09:35.398Z,26.50
2018-12-15T01:10:39.021Z,26.10
2018-12-15T01:11:42.719Z,28.35
2018-12-15T01:12:46.346Z,26.75
2018-12-15T01:13:50.110Z,25.77
2018-12-15T01:14:53.791Z,26.12
2018-12-15T01:15:57.513Z,26.02
2018-12-15T01:17:01.149Z,27.52
2018-12-15T01:18:04.905Z,24.77
2018-12-15T01:19:08.546Z,26.95
2018-12-15T01:20:12.279Z,27.55
2018-12-15T01:21:15.969Z,26.90
2018-12-15T01:22:19.605Z,28.02
2018-12-15T01:23:23.306Z,25.90
2018-12-15T01:24:26.938Z,25.72
2018-12-15T01:25:30.653Z,24.87
2018-12-15T01:26:34.270Z,28.85
2018-12-15T01:27:37.905Z,24.82
2018-12-15T01:28:41.588Z,26.23
2018-12-15T01:29:45.281Z,27.58
2018-12-15T01:30:48.929Z,26.50
2018-12-15T01:31:52.548Z,27.95
2018-12-15T01:32:56.164Z,27.27
2018-12-15T01:33:59.774Z,28.23
2018-12-15T01:35:03.514Z,26.65
2018-12-15T01:36:07.306Z,26.20
2018-12-15T01:37:10.997Z,24.82
2018-12-15T01:38:14.631Z,28.55
2018-12-15T01:39:19.692Z,27.42
2018-12-15T01:40:23.517Z,29.80
2018-12-15T01:41:27.126Z,24.65
2018-12-15T01:42:30.814Z,29.75
2018-12-15T01:43:34.496Z,25.17
2018-12-15T01:44:38.197Z,26.45
2018-12-15T01:45:41.886Z,26.25
2018-12-15T01:46:45.561Z,26.33
2018-12-15T01:47:49.237Z,26.02
2018-12-15T01:48:52.857Z,24.37
2018-12-15T01:49:56.466Z,24.30
2018-12-15T01:51:00.436Z,24.87
2018-12-15T01:52:04.138Z,27.50
2018-12-15T01:53:07.815Z,23.57
2018-12-15T01:54:11.511Z,26.15
2018-12-15T01:55:15.126Z,27.55
2018-12-15T01:56:18.782Z,23.45
2018-12-15T01:57:22.463Z,26.90
2018-12-15T01:58:26.158Z,24.12
2018-12-15T01:59:29.769Z,25.65
2018-12-15T02:00:33.531Z,25.43
2018-12-15T02:01:37.137Z,27.65
2018-12-15T02:02:41.213Z,24.15
2018-12-15T02:03:44.847Z,25.00
2018-12-15T02:04:48.586Z,24.47
2018-12-15T02:05:52.225Z,24.07
2018-12-15T02:06:55.838Z,26.25
2018-12-15T02:07:59.625Z,24.27
2018-12-15T02:09:04.468Z,26.35
2018-12-15T02:10:08.850Z,29.85
2018-12-15T02:11:12.573Z,23.87
2018-12-15T02:12:16.256Z,25.35
2018-12-15T02:13:19.862Z,24.67
2018-12-15T02:14:23.465Z,28.50
2018-12-15T02:15:27.145Z,26.27
2018-12-15T02:16:30.835Z,27.15
2018-12-15T02:17:34.693Z,28.73
2018-12-15T02:18:38.321Z,25.77
2018-12-15T02:19:42.017Z,24.43
2018-12-15T02:20:45.829Z,26.80
2018-12-15T02:21:56.260Z,25.92
2018-12-15T02:22:59.943Z,23.62
2018-12-15T02:24:03.722Z,23.85
2018-12-15T02:25:07.660Z,27.17
2018-12-15T02:26:11.309Z,27.80
2018-12-15T02:27:15.002Z,24.85
2018-12-15T02:28:18.575Z,24.12
2018-12-15T02:29:22.220Z,26.77
2018-12-15T02:30:25.856Z,24.15
2018-12-15T02:31:29.514Z,25.57
2018-12-15T02:32:33.159Z,25.55
2018-12-15T02:33:36.899Z,24.77
2018-12-15T02:34:40.527Z,25.15
2018-12-15T02:35:44.142Z,28.73
2018-12-15T02:36:47.779Z,22.82
2018-12-15T02:37:51.381Z,25.70
2018-12-15T02:38:55.109Z,27.48
2018-12-15T02:39:58.756Z,24.40
2018-12-15T02:41:02.450Z,26.62
2018-12-15T02:42:06.137Z,26.25
2018-12-15T02:43:09.850Z,25.72
2018-12-15T02:44:13.456Z,24.30
2018-12-15T02:45:17.142Z,27.00
2018-12-15T02:46:20.752Z,25.30
2018-12-15T02:47:24.465Z,24.87
2018-12-15T02:48:28.069Z,23.92
2018-12-15T02:49:31.809Z,26.30
2018-12-15T02:50:35.492Z,25.60
2018-12-15T02:51:39.423Z,27.00
2018-12-15T02:52:43.101Z,25.25
2018-12-15T02:53:46.944Z,27.77
2018-12-15T02:54:50.617Z,26.77
2018-12-15T02:55:54.290Z,27.55
2018-12-15T02:56:57.921Z,24.72
2018-12-15T02:58:01.534Z,25.88
2018-12-15T02:59:05.272Z,25.55
2018-12-15T03:00:09.100Z,27.10
2018-12-15T03:01:12.868Z,26.15
2018-12-15T03:02:16.658Z,28.27
2018-12-15T03:03:20.251Z,25.52
2018-12-15T03:04:23.969Z,28.55
2018-12-15T03:05:27.662Z,26.60
2018-12-15T03:06:31.340Z,27.42
2018-12-15T03:07:34.956Z,28.10
2018-12-15T03:08:38.629Z,25.35
2018-12-15T03:09:42.309Z,27.15
2018-12-15T03:10:46.066Z,28.62
2018-12-15T03:11:49.767Z,28.65
2018-12-15T03:12:53.375Z,29.23
2018-12-15T03:13:57.044Z,29.40
2018-12-15T03:15:00.658Z,29.07
2018-12-15T03:16:04.343Z,28.77
2018-12-15T03:17:08.310Z,31.42
2018-12-15T03:18:12.010Z,28.70
2018-12-15T03:19:15.625Z,28.95
2018-12-15T03:20:19.330Z,30.57
2018-12-15T03:21:22.982Z,26.00
2018-12-15T03:22:26.588Z,26.68
2018-12-15T03:23:30.361Z,28.32
2018-12-15T03:24:33.973Z,28.10
2018-12-15T03:25:37.594Z,28.27
2018-12-15T03:26:41.203Z,29.30
2018-12-15T03:27:44.819Z,28.87
2018-12-15T03:28:48.433Z,28.45
2018-12-15T03:29:52.060Z,28.00
2018-12-15T03:30:55.682Z,28.17
2018-12-15T03:31:59.372Z,34.13
2018-12-15T03:33:03.006Z,26.00
2018-12-15T03:34:06.685Z,30.85
2018-12-15T03:36:20.432Z,29.82
2018-12-15T03:37:24.128Z,30.27
2018-12-15T03:38:27.828Z,28.75
2018-12-15T03:39:31.429Z,32.28
2018-12-15T03:40:35.192Z,31.23
2018-12-15T03:41:38.873Z,28.67
2018-12-15T03:42:42.522Z,29.90
2018-12-15T03:43:46.144Z,29.65
2018-12-15T03:44:49.833Z,31.15
2018-12-15T03:45:53.487Z,30.08
2018-12-15T03:46:57.143Z,31.02
2018-12-15T03:48:00.765Z,32.67
2018-12-15T03:49:04.456Z,30.17
2018-12-15T03:50:08.290Z,31.50
2018-12-15T03:51:11.969Z,31.02
2018-12-15T03:52:15.581Z,34.55
2018-12-15T03:53:19.273Z,33.33
2018-12-15T03:54:22.899Z,31.42
2018-12-15T03:55:26.595Z,33.05
2018-12-15T03:56:30.279Z,29.45
2018-12-15T03:57:33.894Z,36.83
2018-12-15T03:58:37.510Z,33.18
2018-12-15T03:59:41.289Z,32.48
2018-12-15T04:00:44.976Z,34.90
2018-12-15T04:01:48.674Z,36.77
2018-12-15T04:02:52.327Z,34.90
2018-12-15T04:03:55.956Z,34.35
2018-12-15T04:04:59.636Z,34.83
2018-12-15T04:06:03.415Z,39.05
2018-12-15T04:07:07.034Z,34.05
2018-12-15T04:08:10.800Z,36.58
2018-12-15T04:09:14.415Z,37.15
2018-12-15T04:10:18.072Z,32.17
2018-12-15T04:11:21.672Z,33.92
2018-12-15T04:12:25.426Z,32.00
2018-12-15T04:13:29.120Z,35.20
2018-12-15T04:14:32.749Z,36.17
2018-12-15T04:15:36.489Z,32.75
2018-12-15T04:16:40.121Z,32.88
2018-12-15T04:17:43.730Z,38.10
2018-12-15T04:18:47.356Z,33.45
2018-12-15T04:19:51.058Z,35.85
2018-12-15T04:20:54.663Z,36.30
2018-12-15T04:22:09.896Z,37.33
2018-12-15T04:23:13.544Z,37.80
2018-12-15T04:24:17.157Z,37.08
2018-12-15T04:25:20.842Z,36.63
2018-12-15T04:26:24.524Z,37.13
2018-12-15T04:27:28.143Z,35.20
2018-12-15T04:28:31.850Z,41.60
2018-12-15T04:29:35.439Z,36.30
2018-12-15T04:30:39.214Z,34.33
2018-12-15T04:31:42.822Z,36.38
2018-12-15T04:32:46.519Z,37.65
2018-12-15T04:33:50.218Z,41.02
2018-12-15T04:34:53.832Z,40.80
2018-12-15T04:35:59.005Z,36.35
2018-12-15T04:37:02.617Z,38.88
2018-12-15T04:38:06.217Z,44.58
2018-12-15T04:39:09.828Z,37.65
2018-12-15T04:40:13.610Z,44.30
2018-12-15T04:41:17.208Z,39.75
2018-12-15T04:42:20.961Z,40.10
2018-12-15T04:43:24.579Z,38.45
2018-12-15T04:44:28.273Z,42.60
2018-12-15T04:45:31.967Z,41.68
2018-12-15T04:46:35.576Z,42.48
2018-12-15T04:47:39.320Z,39.90
2018-12-15T04:48:43.034Z,39.65
2018-12-15T04:49:46.693Z,41.68
2018-12-15T04:50:50.420Z,40.28
2018-12-15T04:51:53.989Z,40.10
2018-12-15T04:52:57.666Z,40.48
2018-12-15T04:54:01.359Z,38.38
2018-12-15T04:55:05.402Z,41.95
2018-12-15T04:56:09.072Z,43.60
2018-12-15T04:57:12.745Z,38.38
2018-12-15T04:58:16.484Z,42.98
2018-12-15T04:59:20.162Z,46.10
2018-12-15T05:00:23.916Z,40.20
2018-12-15T05:01:27.601Z,41.63
2018-12-15T05:02:31.277Z,42.95
2018-12-15T05:03:35.026Z,41.30
2018-12-15T05:04:38.637Z,44.13
2018-12-15T05:05:42.321Z,44.88
2018-12-15T05:06:45.882Z,41.42
2018-12-15T05:07:49.604Z,44.48
2018-12-15T05:08:53.187Z,40.40
2018-12-15T05:09:56.814Z,42.98
2018-12-15T05:11:00.482Z,45.03
2018-12-15T05:12:04.170Z,42.95
2018-12-15T05:13:07.844Z,43.92
2018-12-15T05:14:11.514Z,43.58
2018-12-15T05:15:15.125Z,44.95
2018-12-15T05:16:18.733Z,43.13
2018-12-15T05:17:22.405Z,45.17
2018-12-15T05:18:26.023Z,45.48
2018-12-15T05:19:29.640Z,45.00
2018-12-15T05:20:33.245Z,43.45
2018-12-15T05:21:36.861Z,42.90
2018-12-15T05:22:40.460Z,46.33
2018-12-15T05:23:44.180Z,47.15
2018-12-15T05:24:47.945Z,44.50
2018-12-15T05:25:51.552Z,46.77
2018-12-15T05:26:55.233Z,45.12
2018-12-15T05:27:58.833Z,40.70
2018-12-15T05:29:02.506Z,45.50
2018-12-15T05:30:06.334Z,46.68
2018-12-15T05:31:09.902Z,43.90
2018-12-15T05:32:13.645Z,44.05
2018-12-15T05:33:17.266Z,44.83
2018-12-15T05:34:20.883Z,46.25
2018-12-15T05:35:24.493Z,45.92
2018-12-15T05:36:28.098Z,44.98
2018-12-15T05:37:31.701Z,45.90
2018-12-15T05:38:35.304Z,41.42
2018-12-15T05:39:38.981Z,44.93
2018-12-15T05:40:42.663Z,45.43
2018-12-15T05:41:46.281Z,45.20
2018-12-15T05:42:49.930Z,47.75
2018-12-15T05:43:53.724Z,44.30
2018-12-15T05:44:57.316Z,44.20
2018-12-15T05:46:00.952Z,43.80
2018-12-15T05:47:04.777Z,46.73
2018-12-15T05:48:08.390Z,44.00
2018-12-15T05:49:12.189Z,41.68
2018-12-15T05:50:15.845Z,47.13
2018-12-15T05:51:19.465Z,46.85
2018-12-15T05:52:23.073Z,46.98
2018-12-15T05:53:26.690Z,44.20
2018-12-15T05:54:30.345Z,45.10
2018-12-15T05:55:33.998Z,47.15
2018-12-15T05:56:37.768Z,45.90
2018-12-15T05:57:41.425Z,43.30
2018-12-15T05:58:45.116Z,51.63
2018-12-15T05:59:48.702Z,44.77
2018-12-15T06:00:52.409Z,46.80
2018-12-15T06:01:56.262Z,43.68
2018-12-15T06:02:59.962Z,47.30
2018-12-15T06:04:03.670Z,44.08
2018-12-15T06:05:07.632Z,45.88
2018-12-15T06:06:11.270Z,46.98
2018-12-15T06:07:14.884Z,44.18
2018-12-15T06:08:18.505Z,43.65
2018-12-15T06:09:22.234Z,45.65
2018-12-15T06:10:25.853Z,47.98
2018-12-15T06:11:29.518Z,45.58
2018-12-15T06:12:33.154Z,46.33
2018-12-15T06:13:36.841Z,51.23
2018-12-15T06:14:40.508Z,45.85
2018-12-15T06:15:44.356Z,47.70
2018-12-15T06:16:47.996Z,43.08
2018-12-15T06:17:51.593Z,48.58
2018-12-15T06:18:55.226Z,48.90
2018-12-15T06:19:58.832Z,44.90
2018-12-15T06:21:02.473Z,49.03
2018-12-15T06:22:06.237Z,47.30
2018-12-15T06:23:09.865Z,49.15
2018-12-15T06:24:13.484Z,47.85
2018-12-15T06:25:17.258Z,48.68
2018-12-15T06:26:20.884Z,50.48
2018-12-15T06:27:24.514Z,48.80
2018-12-15T06:28:28.207Z,52.55
2018-12-15T06:29:31.900Z,48.33
2018-12-15T06:30:35.594Z,47.80
2018-12-15T06:31:39.185Z,49.33
2018-12-15T06:32:42.805Z,50.52
2018-12-15T06:33:46.433Z,48.15
2018-12-15T06:34:50.137Z,49.65
2018-12-15T06:35:53.832Z,47.60
2018-12-15T06:36:57.534Z,46.35
2018-12-15T06:38:01.157Z,49.60
2018-12-15T06:39:07.066Z,50.33
2018-12-15T06:40:10.745Z,50.67
2018-12-15T06:41:14.377Z,50.63
2018-12-15T06:42:18.006Z,49.75
2018-12-15T06:43:21.795Z,54.40
2018-12-15T06:44:25.479Z,50.88
2018-12-15T06:45:29.236Z,48.58
2018-12-15T06:46:32.941Z,48.68
2018-12-15T06:47:36.628Z,53.42
2018-12-15T06:48:40.297Z,52.40
2018-12-15T06:49:44.048Z,48.68
2018-12-15T06:50:47.653Z,46.95
2018-12-15T06:51:51.276Z,47.98
2018-12-15T06:52:54.965Z,54.40
2018-12-15T06:53:58.573Z,50.85
2018-12-15T06:55:02.177Z,46.63
2018-12-15T06:56:05.853Z,51.05
2018-12-15T06:57:09.533Z,51.33
2018-12-15T06:58:13.225Z,52.98
2018-12-15T06:59:16.837Z,49.83
2018-12-15T07:00:20.590Z,50.98
2018-12-15T07:01:24.257Z,50.20
2018-12-15T07:02:27.933Z,44.63
2018-12-15T07:03:31.619Z,47.60
2018-12-15T07:04:35.325Z,53.92
2018-12-15T07:05:38.981Z,54.90
2018-12-15T07:06:43.201Z,51.15
2018-12-15T07:07:47.213Z,51.42
2018-12-15T07:08:50.862Z,50.17
2018-12-15T07:09:54.742Z,46.90
2018-12-15T07:10:58.466Z,52.62
2018-12-15T07:12:02.377Z,48.73
2018-12-15T07:13:06.257Z,52.38
2018-12-15T07:14:09.932Z,49.13
2018-12-15T07:15:13.658Z,54.67
2018-12-15T07:16:17.352Z,49.50
2018-12-15T07:17:20.928Z,49.08
2018-12-15T07:18:24.559Z,51.70
2018-12-15T07:19:28.197Z,50.38
2018-12-15T07:20:31.813Z,49.58
2018-12-15T07:21:35.497Z,48.28
2018-12-15T07:22:39.145Z,49.93
2018-12-15T07:23:42.869Z,52.80
2018-12-15T07:24:46.566Z,52.10
2018-12-15T07:25:50.312Z,50.85
2018-12-15T07:26:54.065Z,52.05
2018-12-15T07:27:57.674Z,47.43
2018-12-15T07:29:01.420Z,51.92
2018-12-15T07:30:05.509Z,52.80
2018-12-15T07:31:09.278Z,56.10
2018-12-15T07:32:12.973Z,53.20
2018-12-15T07:33:16.673Z,51.73
2018-12-15T07:34:20.330Z,51.00
2018-12-15T07:35:23.965Z,51.23
2018-12-15T07:36:27.579Z,52.48
2018-12-15T07:37:31.189Z,50.03
2018-12-15T07:38:34.806Z,55.70
2018-12-15T07:39:38.490Z,53.23
2018-12-15T07:40:42.064Z,52.53
2018-12-15T07:41:45.749Z,52.05
2018-12-15T07:42:49.361Z,46.40
2018-12-15T07:43:52.998Z,56.98
2018-12-15T07:44:56.644Z,53.70
2018-12-15T07:46:00.928Z,52.25
2018-12-15T07:47:04.812Z,54.25
2018-12-15T07:48:08.482Z,55.10
2018-12-15T07:49:12.121Z,52.05
2018-12-15T07:50:15.800Z,51.88
2018-12-15T07:51:19.427Z,51.48
2018-12-15T07:52:23.041Z,50.65
2018-12-15T07:53:26.669Z,52.73
2018-12-15T07:54:30.365Z,51.58
2018-12-15T07:55:34.083Z,50.65
2018-12-15T07:56:38.547Z,51.15
2018-12-15T07:57:42.344Z,50.25
2018-12-15T07:58:46.086Z,54.03
2018-12-15T07:59:49.673Z,52.70
2018-12-15T08:00:53.349Z,50.35
2018-12-15T08:01:56.984Z,50.92
2018-12-15T08:03:00.664Z,51.25
2018-12-15T08:04:04.384Z,48.45
2018-12-15T08:05:08.181Z,47.03
2018-12-15T08:06:11.857Z,47.20
2018-12-15T08:07:15.509Z,48.15
2018-12-15T08:08:19.125Z,50.03
2018-12-15T08:09:22.792Z,54.05
2018-12-15T08:10:28.452Z,48.17
2018-12-15T08:11:37.801Z,49.00
2018-12-15T08:12:42.648Z,51.58
2018-12-15T08:13:48.947Z,46.48
2018-12-15T08:14:52.610Z,49.35
2018-12-15T08:15:57.716Z,49.63
2018-12-15T08:17:01.359Z,47.58
2018-12-15T08:18:05.151Z,48.98
2018-12-15T08:19:08.817Z,50.58
2018-12-15T08:20:12.636Z,45.98
2018-12-15T08:21:16.417Z,48.83
2018-12-15T08:22:25.926Z,50.73
2018-12-15T08:23:25.724Z,47.75
2018-12-15T08:24:29.440Z,48.50
2018-12-15T08:25:33.148Z,51.58
2018-12-15T08:26:36.745Z,47.85
2018-12-15T08:27:40.360Z,44.83
2018-12-15T08:28:44.073Z,51.33
2018-12-15T08:29:47.701Z,49.05
2018-12-15T08:30:51.331Z,52.25
2018-12-15T08:31:55.020Z,47.83
2018-12-15T08:32:58.709Z,48.85
2018-12-15T08:34:02.484Z,46.77
2018-12-15T08:35:06.347Z,49.67
2018-12-15T08:36:09.981Z,47.75
2018-12-15T08:37:13.680Z,50.55
2018-12-15T08:38:17.466Z,44.60
2018-12-15T08:39:21.189Z,45.73
2018-12-15T08:40:24.804Z,46.85
2018-12-15T08:41:28.437Z,46.73
2018-12-15T08:42:32.157Z,47.58
2018-12-15T08:43:35.814Z,49.40
2018-12-15T08:44:39.445Z,49.15
2018-12-15T08:45:43.076Z,48.92
2018-12-15T08:46:46.847Z,47.60
2018-12-15T08:47:50.472Z,46.50
2018-12-15T08:48:54.122Z,47.83
2018-12-15T08:49:57.808Z,46.70
2018-12-15T08:51:01.734Z,48.80
2018-12-15T08:52:05.460Z,46.73
2018-12-15T08:53:09.086Z,46.42
2018-12-15T08:54:12.725Z,49.90
2018-12-15T08:55:16.428Z,46.23
2018-12-15T08:56:20.143Z,47.45
2018-12-15T08:57:25.428Z,44.67
2018-12-15T08:58:29.164Z,43.78
2018-12-15T08:59:32.764Z,43.78
2018-12-15T09:00:36.550Z,44.13
2018-12-15T09:01:40.140Z,48.80
2018-12-15T09:02:44.257Z,43.60
2018-12-15T09:03:48.020Z,43.52
2018-12-15T09:04:51.808Z,44.85
2018-12-15T09:05:55.519Z,41.30
2018-12-15T09:06:59.231Z,46.13
2018-12-15T09:08:02.940Z,44.93
2018-12-15T09:09:07.036Z,40.95
2018-12-15T09:10:10.833Z,41.95
2018-12-15T09:11:14.670Z,43.35
2018-12-15T09:12:18.349Z,41.25
2018-12-15T09:13:21.990Z,45.48
2018-12-15T09:14:25.701Z,40.88
2018-12-15T09:15:29.341Z,44.85
2018-12-15T09:16:33.069Z,47.25
2018-12-15T09:17:36.769Z,40.75
2018-12-15T09:18:40.453Z,46.20
2018-12-15T09:19:44.245Z,40.95
2018-12-15T09:20:47.985Z,42.27
2018-12-15T09:21:51.596Z,38.55
2018-12-15T09:22:55.301Z,42.73
2018-12-15T09:23:58.924Z,40.78
2018-12-15T09:25:02.609Z,40.15
2018-12-15T09:26:06.295Z,39.55
2018-12-15T09:27:09.886Z,41.65
2018-12-15T09:28:13.501Z,40.70
2018-12-15T09:29:17.282Z,39.92
2018-12-15T09:30:21.127Z,44.90
2018-12-15T09:31:24.771Z,42.93
2018-12-15T09:32:28.553Z,44.15
2018-12-15T09:33:32.161Z,41.30
2018-12-15T09:34:35.855Z,40.55
2018-12-15T09:35:39.673Z,39.33
2018-12-15T09:36:43.377Z,41.50
2018-12-15T09:37:46.997Z,41.70
2018-12-15T09:38:50.636Z,43.05
2018-12-15T09:39:54.464Z,40.73
2018-12-15T09:40:58.089Z,41.20
2018-12-15T09:42:01.724Z,40.65
2018-12-15T09:43:05.357Z,40.80
2018-12-15T09:44:08.979Z,40.75
2018-12-15T09:45:12.745Z,40.90
2018-12-15T09:46:16.490Z,39.83
2018-12-15T09:47:20.172Z,37.20
2018-12-15T09:48:23.946Z,42.30
2018-12-15T09:49:27.586Z,39.88
2018-12-15T09:50:31.592Z,39.63
2018-12-15T09:51:35.285Z,40.03
2018-12-15T09:52:38.988Z,39.65
2018-12-15T09:53:42.752Z,40.33
2018-12-15T09:54:46.408Z,43.65
2018-12-15T09:55:50.005Z,36.25
2018-12-15T09:56:53.794Z,38.60
2018-12-15T09:57:57.486Z,37.90
2018-12-15T09:59:01.168Z,40.38
2018-12-15T10:00:05.252Z,42.25
2018-12-15T10:01:08.976Z,36.77
2018-12-15T10:02:12.630Z,35.63
2018-12-15T10:03:21.889Z,35.60
2018-12-15T10:04:25.481Z,40.28
2018-12-15T10:05:29.245Z,39.78
2018-12-15T10:06:32.870Z,41.00
2018-12-15T10:07:36.487Z,39.10
2018-12-15T10:08:40.110Z,34.50
2018-12-15T10:09:43.733Z,41.18
2018-12-15T10:10:47.420Z,40.03
2018-12-15T10:11:51.058Z,37.93
2018-12-15T10:12:54.746Z,38.73
2018-12-15T10:13:58.380Z,37.17
2018-12-15T10:15:01.995Z,37.28
2018-12-15T10:16:05.766Z,36.88
2018-12-15T10:17:09.385Z,37.40
2018-12-15T10:18:13.068Z,35.98
2018-12-15T10:19:16.768Z,36.28
2018-12-15T10:20:20.484Z,34.92
2018-12-15T10:21:24.190Z,37.50
2018-12-15T10:22:27.937Z,36.35
2018-12-15T10:23:31.545Z,34.15
2018-12-15T10:24:35.162Z,33.23
2018-12-15T10:25:38.805Z,33.48
2018-12-15T10:26:42.495Z,34.50
2018-12-15T10:27:46.172Z,36.50
2018-12-15T10:28:49.799Z,37.20
2018-12-15T10:29:59.002Z,37.63
2018-12-15T10:31:08.116Z,37.25
2018-12-15T10:32:17.207Z,37.33
2018-12-15T10:33:20.853Z,35.48
2018-12-15T10:34:24.647Z,34.45
2018-12-15T10:35:28.340Z,37.23
2018-12-15T10:36:32.136Z,34.63
2018-12-15T10:37:35.827Z,33.55
2018-12-15T10:38:39.406Z,34.53
2018-12-15T10:39:43.038Z,36.17
2018-12-15T10:40:46.798Z,35.50
2018-12-15T10:41:50.419Z,33.00
2018-12-15T10:42:54.046Z,33.63
2018-12-15T10:43:57.777Z,31.93
2018-12-15T10:45:01.473Z,31.93
2018-12-15T10:46:05.244Z,35.48
2018-12-15T10:47:08.953Z,33.48
2018-12-15T10:48:12.637Z,35.58
2018-12-15T10:49:16.257Z,37.13
2018-12-15T10:50:20.039Z,34.05
2018-12-15T10:51:23.714Z,35.83
2018-12-15T10:52:27.482Z,32.90
2018-12-15T10:53:31.117Z,33.78
2018-12-15T10:54:34.810Z,33.83
2018-12-15T10:55:38.398Z,31.57
2018-12-15T10:56:42.107Z,35.00
2018-12-15T10:57:45.873Z,35.95
2018-12-15T10:58:49.489Z,33.80
2018-12-15T10:59:53.181Z,34.45
2018-12-15T11:00:56.873Z,36.23
2018-12-15T11:02:00.574Z,34.18
2018-12-15T11:03:04.345Z,32.75
2018-12-15T11:04:07.967Z,32.15
2018-12-15T11:05:11.629Z,33.10
2018-12-15T11:06:15.332Z,32.83
2018-12-15T11:07:18.969Z,32.58
2018-12-15T11:08:22.595Z,31.45
2018-12-15T11:09:26.304Z,30.08
2018-12-15T11:10:29.895Z,32.28
2018-12-15T11:11:33.517Z,33.33
2018-12-15T11:12:37.214Z,28.75
2018-12-15T11:13:40.907Z,33.63
2018-12-15T11:14:44.601Z,32.95
2018-12-15T11:15:48.299Z,32.38
2018-12-15T11:16:51.925Z,31.50
2018-12-15T11:17:55.549Z,33.18
2018-12-15T11:18:59.164Z,31.05
2018-12-15T11:20:02.976Z,31.90
2018-12-15T11:21:06.747Z,31.12
2018-12-15T11:22:10.440Z,33.00
2018-12-15T11:23:14.088Z,31.50
2018-12-15T11:24:17.712Z,33.15
2018-12-15T11:25:21.405Z,32.13
2018-12-15T11:26:25.080Z,34.70
2018-12-15T11:27:28.774Z,30.32
2018-12-15T11:28:32.495Z,30.40
2018-12-15T11:29:36.158Z,30.92
2018-12-15T11:30:39.753Z,33.30
2018-12-15T11:31:43.445Z,34.53
2018-12-15T11:32:47.070Z,30.10
2018-12-15T11:33:50.821Z,30.48
2018-12-15T11:34:54.521Z,30.40
2018-12-15T11:35:58.222Z,31.93
2018-12-15T11:37:01.898Z,30.88
2018-12-15T11:38:05.588Z,28.65
2018-12-15T11:39:09.211Z,28.57
2018-12-15T11:40:12.843Z,31.50
2018-12-15T11:41:16.475Z,27.27
2018-12-15T11:42:20.266Z,27.73
2018-12-15T11:43:23.958Z,24.90
2018-12-15T11:44:27.570Z,28.42
2018-12-15T11:45:31.593Z,27.20
2018-12-15T11:46:35.192Z,27.60
2018-12-15T11:47:38.901Z,26.42
2018-12-15T11:48:42.549Z,32.33
2018-12-15T11:49:46.200Z,29.35
2018-12-15T11:50:49.885Z,28.57
2018-12-15T11:51:53.524Z,28.60
2018-12-15T11:52:57.231Z,25.23
2018-12-15T11:54:00.879Z,27.65
2018-12-15T11:55:04.757Z,27.42
2018-12-15T11:56:08.532Z,27.65
2018-12-15T11:57:12.182Z,26.80
2018-12-15T11:58:16.482Z,29.50
2018-12-15T11:59:20.190Z,25.75
2018-12-15T12:00:23.849Z,25.60
2018-12-15T12:01:27.556Z,27.98
2018-12-15T12:02:31.991Z,27.15
2018-12-15T12:03:35.732Z,24.98
2018-12-15T12:04:39.357Z,30.72
2018-12-15T12:05:43.062Z,28.47
2018-12-15T12:06:46.753Z,25.17
2018-12-15T12:07:50.993Z,27.05
2018-12-15T12:08:54.722Z,24.90
2018-12-15T12:09:58.332Z,25.90
2018-12-15T12:11:02.098Z,26.75
2018-12-15T12:12:05.806Z,29.55
2018-12-15T12:13:09.522Z,28.02
2018-12-15T12:14:13.147Z,26.97
2018-12-15T12:15:16.777Z,30.08
2018-12-15T12:16:20.493Z,26.50
2018-12-15T12:17:24.129Z,28.92
2018-12-15T12:18:27.753Z,24.70
2018-12-15T12:19:31.384Z,26.23
2018-12-15T12:20:35.014Z,24.25
2018-12-15T12:21:39.353Z,25.85
2018-12-15T12:22:43.665Z,26.00
2018-12-15T12:23:47.461Z,24.65
2018-12-15T12:24:51.153Z,24.90
2018-12-15T12:25:54.815Z,24.23
2018-12-15T12:26:58.429Z,23.05
2018-12-15T12:28:02.378Z,23.02
2018-12-15T12:29:06.077Z,22.25
2018-12-15T12:30:09.893Z,23.83
2018-12-15T12:31:13.516Z,21.23
2018-12-15T12:32:17.212Z,20.75
2018-12-15T12:33:20.899Z,20.72
2018-12-15T12:34:24.485Z,23.98
2018-12-15T12:35:28.170Z,22.65
2018-12-15T12:36:31.857Z,20.92
2018-12-15T12:37:35.561Z,21.75
2018-12-15T12:38:39.268Z,18.55
2018-12-15T12:39:42.977Z,19.85
2018-12-15T12:40:46.736Z,18.55
2018-12-15T12:41:50.438Z,19.32
2018-12-15T12:42:54.236Z,20.50
2018-12-15T12:43:57.928Z,18.52
2018-12-15T12:45:01.510Z,20.70
2018-12-15T12:46:05.301Z,16.77
2018-12-15T12:47:08.913Z,19.60
2018-12-15T12:48:12.609Z,20.20
2018-12-15T12:49:16.248Z,19.77
2018-12-15T12:50:19.965Z,18.10
2018-12-15T12:51:23.657Z,22.42
2018-12-15T12:52:27.273Z,18.30
2018-12-15T12:53:31.041Z,17.42
2018-12-15T12:54:34.741Z,17.55
2018-12-15T12:55:38.437Z,18.77
2018-12-15T12:56:42.129Z,14.47
2018-12-15T12:57:45.855Z,15.30
2018-12-15T12:58:49.469Z,15.78
2018-12-15T12:59:53.092Z,13.72
2018-12-15T13:00:59.856Z,12.37
2018-12-15T13:02:03.769Z,12.55
2018-12-15T13:03:07.390Z,12.15
2018-12-15T13:04:11.102Z,11.90
2018-12-15T13:05:14.725Z,11.05
2018-12-15T13:06:18.408Z,11.18
2018-12-15T13:07:22.100Z,11.33
2018-12-15T13:08:25.808Z,11.53
2018-12-15T13:09:29.492Z,12.28
2018-12-15T13:10:33.189Z,11.97
2018-12-15T13:11:37.012Z,11.63
2018-12-15T13:12:40.703Z,11.48
2018-12-15T13:13:44.365Z,12.33
2018-12-15T13:14:48.073Z,11.60
2018-12-15T13:15:51.764Z,11.35
2018-12-15T13:16:55.623Z,11.50
2018-12-15T13:17:59.245Z,12.20
2018-12-15T13:19:03.012Z,10.78
2018-12-15T13:20:06.862Z,12.33
2018-12-15T13:21:10.468Z,9.00
2018-12-15T13:22:14.157Z,10.55
2018-12-15T13:23:17.838Z,11.35
2018-12-15T13:24:21.563Z,10.20
2018-12-15T13:25:25.201Z,10.13
2018-12-15T13:26:28.906Z,12.50
2018-12-15T13:27:32.711Z,10.68
2018-12-15T13:28:36.288Z,9.68
2018-12-15T13:29:39.991Z,10.20
2018-12-15T13:30:43.685Z,11.38
2018-12-15T13:31:47.380Z,10.95
2018-12-15T13:32:51.140Z,10.93
2018-12-15T13:33:54.770Z,11.28
2018-12-15T13:34:58.612Z,11.85
2018-12-15T13:36:02.436Z,11.50
2018-12-15T13:37:06.125Z,12.43
2018-12-15T13:38:09.820Z,10.15
2018-12-15T13:39:13.529Z,11.90
2018-12-15T13:40:17.233Z,12.50
2018-12-15T13:41:20.921Z,10.63
2018-12-15T13:42:24.610Z,13.28